Terminal Aerodrome Forecast
Issued by NWS Charleston, WV

Current Version | Previous Version | Text Only | Print | Product List | Glossary Off
Versions: 1 2 3 4 5 6 7 8 9 10 11 12 13 14 15 16 17 18 19 20 21 22

000
FTUS41 KRLX 262336
TAFHTS
TAF
KHTS 262336Z 2700/2724 00000KT P6SM SCT040
     FM270800 VRB03KT 5SM BR FEW040
     FM271100 00000KT 2SM BR FEW040
     FM271300 00000KT 3SM BR FEW040
     FM271400 00000KT P6SM FEW040=

USA.gov is the U.S. government's official web portal to all federal, state and local government web resources and services.